VTK527 UNNT-UHHH
Flight info
| Callsign | VTK527 |
|---|---|
| Flight time | 4h 34m |
| Altitude | 33000 |
| Route | N0500F330 OGATI A308 RISPA A822 LAPAK B151 ROVNO W176 TISBU W174 KOTIB B151 BRT G363 GU N992 TORMA A946 IVADA |
| Aircraft | A346/H-H/L |
Departure
| Time | 2026-04-26 01:58 |
|---|---|
| Airport | Novosibirsk Tolmachevo Airport (UNNT) |
Arrival
| Time | 2026-04-26 06:32 |
|---|---|
| Airport | Khabarovsk Novy Airport (UHHH) |
| Time | Latitude | Longitude | Altitude | Speed | Heading |
|---|---|---|---|---|---|
| 2026-04-26 01:43 | 55.01148 | 82.67016 | 366 ft | 0 kts | 171° |
| 2026-04-26 01:54 | 55.01147 | 82.67017 | 366 ft | 0 kts | 171° |
| 2026-04-26 01:54 | 55.01129 | 82.67021 | 366 ft | 4 kts | 170° |
| 2026-04-26 01:54 | 55.01104 | 82.67049 | 366 ft | 5 kts | 124° |
| 2026-04-26 01:54 | 55.01094 | 82.67127 | 365 ft | 7 kts | 84° |
| 2026-04-26 01:55 | 55.01100 | 82.67230 | 367 ft | 8 kts | 84° |
| 2026-04-26 01:55 | 55.01107 | 82.67337 | 369 ft | 9 kts | 83° |
| 2026-04-26 01:55 | 55.01131 | 82.67458 | 369 ft | 11 kts | 47° |
| 2026-04-26 01:55 | 55.01205 | 82.67548 | 368 ft | 14 kts | 32° |
| 2026-04-26 01:56 | 55.01304 | 82.67653 | 366 ft | 17 kts | 31° |
| 2026-04-26 01:56 | 55.01397 | 82.67747 | 365 ft | 12 kts | 30° |
| 2026-04-26 01:56 | 55.01457 | 82.67764 | 366 ft | 5 kts | 318° |
| 2026-04-26 01:56 | 55.01476 | 82.67684 | 365 ft | 8 kts | 278° |
| 2026-04-26 01:57 | 55.01471 | 82.67566 | 366 ft | 7 kts | 261° |
| 2026-04-26 01:57 | 55.01471 | 82.67562 | 365 ft | 0 kts | 261° |
| 2026-04-26 01:57 | 55.01471 | 82.67557 | 365 ft | 1 kts | 261° |
| 2026-04-26 01:57 | 55.01448 | 82.67316 | 365 ft | 54 kts | 262° |
| 2026-04-26 01:58 | 55.01350 | 82.66263 | 362 ft | 121 kts | 262° |
| 2026-04-26 01:58 | 55.01191 | 82.64473 | 362 ft | 174 kts | 260° |
| 2026-04-26 01:58 | 55.00997 | 82.62292 | 656 ft | 191 kts | 257° |
| 2026-04-26 01:58 | 55.00829 | 82.60015 | 1281 ft | 192 kts | 257° |
| 2026-04-26 01:59 | 55.00705 | 82.57716 | 2036 ft | 188 kts | 255° |
| 2026-04-26 01:59 | 55.00481 | 82.55523 | 2631 ft | 187 kts | 252° |
| 2026-04-26 01:59 | 55.00319 | 82.53199 | 2935 ft | 209 kts | 270° |
| 2026-04-26 01:59 | 55.00993 | 82.50758 | 2962 ft | 245 kts | 311° |
| 2026-04-26 02:00 | 55.02541 | 82.49360 | 2976 ft | 265 kts | 350° |
| 2026-04-26 02:00 | 55.04401 | 82.49400 | 2996 ft | 270 kts | 6° |
| 2026-04-26 02:00 | 55.06273 | 82.49890 | 2990 ft | 271 kts | 8° |
| 2026-04-26 02:00 | 55.08124 | 82.50385 | 2988 ft | 271 kts | 7° |
| 2026-04-26 02:01 | 55.09974 | 82.50799 | 2985 ft | 271 kts | 5° |
| 2026-04-26 02:01 | 55.11814 | 82.51519 | 2963 ft | 272 kts | 30° |
| 2026-04-26 02:01 | 55.13151 | 82.53723 | 2974 ft | 266 kts | 68° |
| 2026-04-26 02:01 | 55.13623 | 82.56745 | 2992 ft | 257 kts | 91° |
| 2026-04-26 02:02 | 55.13745 | 82.59853 | 2988 ft | 257 kts | 93° |
| 2026-04-26 02:02 | 55.13891 | 82.62967 | 2985 ft | 258 kts | 90° |
| 2026-04-26 02:02 | 55.13889 | 82.66098 | 3072 ft | 260 kts | 114° |
| 2026-04-26 02:02 | 55.13080 | 82.68877 | 3681 ft | 262 kts | 129° |
| 2026-04-26 02:03 | 55.12088 | 82.71540 | 4607 ft | 263 kts | 129° |
| 2026-04-26 02:03 | 55.11108 | 82.74252 | 5485 ft | 267 kts | 127° |
| 2026-04-26 02:03 | 55.10159 | 82.77020 | 6297 ft | 271 kts | 125° |
| 2026-04-26 02:03 | 55.09228 | 82.79845 | 7116 ft | 275 kts | 124° |
| 2026-04-26 02:04 | 55.08286 | 82.82783 | 7910 ft | 280 kts | 123° |
| 2026-04-26 02:04 | 55.07353 | 82.85734 | 8664 ft | 284 kts | 123° |
| 2026-04-26 02:04 | 55.06405 | 82.88758 | 9397 ft | 289 kts | 123° |
| 2026-04-26 02:04 | 55.05433 | 82.91861 | 10127 ft | 294 kts | 123° |
| 2026-04-26 02:05 | 55.04445 | 82.95020 | 10697 ft | 304 kts | 123° |
| 2026-04-26 02:05 | 55.03401 | 82.98341 | 11063 ft | 322 kts | 123° |
| 2026-04-26 02:05 | 55.02308 | 83.01810 | 11390 ft | 340 kts | 123° |
| 2026-04-26 02:05 | 55.01146 | 83.05499 | 11703 ft | 358 kts | 123° |
| 2026-04-26 02:06 | 54.99923 | 83.09385 | 12009 ft | 376 kts | 123° |
| 2026-04-26 02:06 | 54.98632 | 83.13487 | 12445 ft | 389 kts | 123° |
| 2026-04-26 02:06 | 54.97344 | 83.17587 | 13119 ft | 394 kts | 123° |
| 2026-04-26 02:06 | 54.96015 | 83.21804 | 13852 ft | 398 kts | 123° |
| 2026-04-26 02:07 | 54.94694 | 83.25974 | 14569 ft | 402 kts | 123° |
| 2026-04-26 02:07 | 54.93390 | 83.30257 | 15247 ft | 408 kts | 118° |
| 2026-04-26 02:07 | 54.92404 | 83.34922 | 15905 ft | 417 kts | 109° |
| 2026-04-26 02:07 | 54.91851 | 83.39889 | 16585 ft | 424 kts | 99° |
| 2026-04-26 02:08 | 54.91597 | 83.44984 | 17264 ft | 428 kts | 97° |
| 2026-04-26 02:08 | 54.91390 | 83.50130 | 17903 ft | 432 kts | 96° |
| 2026-04-26 02:08 | 54.91183 | 83.55345 | 18539 ft | 435 kts | 96° |
| 2026-04-26 02:08 | 54.90968 | 83.60534 | 19142 ft | 439 kts | 96° |
| 2026-04-26 02:09 | 54.90736 | 83.65851 | 19748 ft | 442 kts | 97° |
| 2026-04-26 02:09 | 54.90501 | 83.71137 | 20326 ft | 446 kts | 97° |
| 2026-04-26 02:09 | 54.90256 | 83.76514 | 20912 ft | 449 kts | 97° |
| 2026-04-26 02:09 | 54.90006 | 83.81936 | 21484 ft | 452 kts | 96° |
| 2026-04-26 02:10 | 54.89751 | 83.87362 | 22027 ft | 456 kts | 96° |
| 2026-04-26 02:10 | 54.89493 | 83.92821 | 22564 ft | 459 kts | 96° |
| 2026-04-26 02:10 | 54.89231 | 83.98330 | 23087 ft | 462 kts | 96° |
| 2026-04-26 02:10 | 54.88963 | 84.03868 | 23603 ft | 466 kts | 96° |
| 2026-04-26 02:11 | 54.88688 | 84.09518 | 24157 ft | 468 kts | 96° |
| 2026-04-26 02:11 | 54.88413 | 84.15128 | 24671 ft | 472 kts | 96° |
| 2026-04-26 02:11 | 54.88131 | 84.20805 | 25185 ft | 475 kts | 95° |
| 2026-04-26 02:11 | 54.87845 | 84.26508 | 25656 ft | 479 kts | 95° |
| 2026-04-26 02:12 | 54.87554 | 84.32262 | 26120 ft | 482 kts | 95° |
| 2026-04-26 02:12 | 54.87257 | 84.38065 | 26582 ft | 486 kts | 95° |
| 2026-04-26 02:12 | 54.86959 | 84.43854 | 27025 ft | 489 kts | 95° |
| 2026-04-26 02:12 | 54.86651 | 84.49768 | 27474 ft | 492 kts | 95° |
| 2026-04-26 02:13 | 54.86340 | 84.55663 | 27919 ft | 495 kts | 95° |
| 2026-04-26 02:13 | 54.86026 | 84.61561 | 28345 ft | 498 kts | 95° |
| 2026-04-26 02:13 | 54.85706 | 84.67530 | 28886 ft | 498 kts | 95° |
| 2026-04-26 02:13 | 54.85399 | 84.73422 | 29551 ft | 495 kts | 95° |
| 2026-04-26 02:14 | 54.85092 | 84.79359 | 30190 ft | 492 kts | 95° |
| 2026-04-26 02:14 | 54.84786 | 84.85249 | 30756 ft | 491 kts | 95° |
| 2026-04-26 02:14 | 54.84480 | 84.91076 | 31313 ft | 490 kts | 95° |
| 2026-04-26 02:14 | 54.84170 | 84.96901 | 31893 ft | 488 kts | 95° |
| 2026-04-26 02:15 | 54.83856 | 85.02760 | 32432 ft | 487 kts | 95° |
| 2026-04-26 02:15 | 54.83541 | 85.08550 | 32920 ft | 486 kts | 95° |
| 2026-04-26 02:15 | 54.83254 | 85.14408 | 33095 ft | 485 kts | 92° |
| 2026-04-26 02:16 | 54.83350 | 85.26005 | 33105 ft | 482 kts | 84° |
| 2026-04-26 02:16 | 54.84429 | 85.37391 | 33106 ft | 481 kts | 75° |
| 2026-04-26 02:17 | 54.86450 | 85.48401 | 33109 ft | 479 kts | 68° |
| 2026-04-26 02:17 | 54.88831 | 85.59115 | 33109 ft | 478 kts | 67° |
| 2026-04-26 02:18 | 54.91195 | 85.69796 | 33114 ft | 478 kts | 68° |
| 2026-04-26 02:18 | 54.93549 | 85.80593 | 33122 ft | 478 kts | 68° |
| 2026-04-26 02:19 | 54.95878 | 85.91376 | 33120 ft | 478 kts | 68° |
| 2026-04-26 02:19 | 54.98109 | 86.02221 | 33127 ft | 478 kts | 71° |
| 2026-04-26 02:20 | 54.99997 | 86.13217 | 33125 ft | 479 kts | 72° |
| 2026-04-26 02:20 | 55.01870 | 86.24384 | 33128 ft | 480 kts | 72° |
| 2026-04-26 02:21 | 55.03730 | 86.35512 | 33128 ft | 481 kts | 72° |
| 2026-04-26 02:21 | 55.05585 | 86.46664 | 33131 ft | 481 kts | 72° |
| 2026-04-26 02:22 | 55.07430 | 86.57824 | 33133 ft | 482 kts | 72° |
| 2026-04-26 02:22 | 55.09264 | 86.68977 | 33130 ft | 483 kts | 73° |
| 2026-04-26 02:23 | 55.11109 | 86.80273 | 33128 ft | 484 kts | 73° |
| 2026-04-26 02:23 | 55.12932 | 86.91506 | 33131 ft | 484 kts | 73° |
| 2026-04-26 02:24 | 55.14742 | 87.02738 | 33136 ft | 484 kts | 73° |
| 2026-04-26 02:24 | 55.16555 | 87.14066 | 33137 ft | 484 kts | 73° |
| 2026-04-26 02:25 | 55.18342 | 87.25302 | 33138 ft | 484 kts | 73° |
| 2026-04-26 02:25 | 55.20132 | 87.36636 | 33139 ft | 484 kts | 73° |
| 2026-04-26 02:26 | 55.21913 | 87.47975 | 33139 ft | 484 kts | 73° |
| 2026-04-26 02:26 | 55.23669 | 87.59243 | 33142 ft | 484 kts | 73° |
| 2026-04-26 02:27 | 55.25432 | 87.70631 | 33151 ft | 485 kts | 74° |
| 2026-04-26 02:27 | 55.27184 | 87.82028 | 33156 ft | 485 kts | 74° |
| 2026-04-26 02:28 | 55.28921 | 87.93413 | 33152 ft | 485 kts | 74° |
| 2026-04-26 02:28 | 55.30647 | 88.04793 | 33150 ft | 485 kts | 74° |
| 2026-04-26 02:29 | 55.32363 | 88.16200 | 33163 ft | 484 kts | 74° |
| 2026-04-26 02:29 | 55.34059 | 88.27550 | 33151 ft | 484 kts | 74° |
| 2026-04-26 02:30 | 55.35749 | 88.38930 | 33160 ft | 484 kts | 74° |
| 2026-04-26 02:30 | 55.37438 | 88.50390 | 33168 ft | 484 kts | 74° |
| 2026-04-26 02:31 | 55.39099 | 88.61747 | 33170 ft | 483 kts | 74° |
| 2026-04-26 02:31 | 55.40761 | 88.73200 | 33165 ft | 483 kts | 75° |
| 2026-04-26 02:32 | 55.42379 | 88.84585 | 33172 ft | 484 kts | 76° |
| 2026-04-26 02:32 | 55.43495 | 88.96287 | 33165 ft | 486 kts | 83° |
| 2026-04-26 02:33 | 55.44070 | 89.08035 | 33163 ft | 485 kts | 84° |
| 2026-04-26 02:33 | 55.44589 | 89.19839 | 33163 ft | 486 kts | 84° |
| 2026-04-26 02:34 | 55.45108 | 89.31656 | 33162 ft | 486 kts | 84° |
| 2026-04-26 02:34 | 55.45622 | 89.43494 | 33166 ft | 485 kts | 84° |
| 2026-04-26 02:35 | 55.46124 | 89.55274 | 33167 ft | 485 kts | 84° |
| 2026-04-26 02:35 | 55.46619 | 89.67126 | 33169 ft | 486 kts | 85° |
| 2026-04-26 02:36 | 55.47100 | 89.78951 | 33173 ft | 486 kts | 85° |
| 2026-04-26 02:36 | 55.47572 | 89.90795 | 33172 ft | 487 kts | 84° |
| 2026-04-26 02:37 | 55.48032 | 90.02657 | 33178 ft | 487 kts | 84° |
| 2026-04-26 02:37 | 55.48477 | 90.14428 | 33180 ft | 486 kts | 84° |
| 2026-04-26 02:38 | 55.48914 | 90.26299 | 33181 ft | 486 kts | 84° |
| 2026-04-26 02:38 | 55.49338 | 90.38120 | 33184 ft | 486 kts | 84° |
| 2026-04-26 02:39 | 55.49752 | 90.49974 | 33187 ft | 486 kts | 84° |
| 2026-04-26 02:39 | 55.50155 | 90.61861 | 33185 ft | 486 kts | 84° |
| 2026-04-26 02:40 | 55.50546 | 90.73694 | 33191 ft | 487 kts | 85° |
| 2026-04-26 02:40 | 55.50927 | 90.85588 | 33187 ft | 487 kts | 85° |
| 2026-04-26 02:41 | 55.51293 | 90.97457 | 33192 ft | 486 kts | 85° |
| 2026-04-26 02:41 | 55.51712 | 91.09280 | 33186 ft | 486 kts | 82° |
| 2026-04-26 02:42 | 55.52701 | 91.20972 | 33189 ft | 483 kts | 76° |
| 2026-04-26 02:42 | 55.53971 | 91.32591 | 33190 ft | 484 kts | 76° |
| 2026-04-26 02:43 | 55.55859 | 91.49998 | 33190 ft | 484 kts | 76° |
| 2026-04-26 02:43 | 55.57096 | 91.61623 | 33192 ft | 484 kts | 76° |
| 2026-04-26 02:44 | 55.58318 | 91.73243 | 33194 ft | 484 kts | 77° |
| 2026-04-26 02:44 | 55.59528 | 91.84888 | 33194 ft | 484 kts | 77° |
| 2026-04-26 02:45 | 55.60732 | 91.96584 | 33194 ft | 485 kts | 77° |
| 2026-04-26 02:45 | 55.61924 | 92.08258 | 33195 ft | 485 kts | 77° |
| 2026-04-26 02:46 | 55.63102 | 92.19931 | 33196 ft | 485 kts | 76° |
| 2026-04-26 02:46 | 55.64275 | 92.31643 | 33198 ft | 485 kts | 76° |
| 2026-04-26 02:47 | 55.65427 | 92.43301 | 33200 ft | 484 kts | 76° |
| 2026-04-26 02:47 | 55.66576 | 92.55047 | 33201 ft | 484 kts | 76° |
| 2026-04-26 02:48 | 55.67710 | 92.66717 | 33201 ft | 483 kts | 77° |
| 2026-04-26 02:48 | 55.68834 | 92.78404 | 33201 ft | 483 kts | 77° |
| 2026-04-26 02:49 | 55.69941 | 92.90052 | 33204 ft | 483 kts | 77° |
| 2026-04-26 02:49 | 55.71047 | 93.01819 | 33204 ft | 484 kts | 77° |
| 2026-04-26 02:50 | 55.72131 | 93.13478 | 33206 ft | 484 kts | 77° |
| 2026-04-26 02:50 | 55.73212 | 93.25229 | 33208 ft | 483 kts | 77° |
| 2026-04-26 02:51 | 55.74277 | 93.36957 | 33211 ft | 483 kts | 77° |
| 2026-04-26 02:51 | 55.75293 | 93.48655 | 33211 ft | 483 kts | 77° |
| 2026-04-26 02:52 | 55.76263 | 93.60438 | 33212 ft | 483 kts | 77° |
| 2026-04-26 02:52 | 55.77217 | 93.72140 | 33214 ft | 483 kts | 78° |
| 2026-04-26 02:53 | 55.78167 | 93.83902 | 33213 ft | 482 kts | 78° |
| 2026-04-26 02:53 | 55.79104 | 93.95611 | 33215 ft | 483 kts | 78° |
| 2026-04-26 02:54 | 55.80036 | 94.07424 | 33218 ft | 482 kts | 78° |
| 2026-04-26 02:54 | 55.80950 | 94.19150 | 33227 ft | 483 kts | 77° |
| 2026-04-26 02:55 | 55.81859 | 94.30985 | 33227 ft | 483 kts | 77° |
| 2026-04-26 02:55 | 55.82731 | 94.42707 | 33227 ft | 484 kts | 78° |
| 2026-04-26 02:56 | 55.83587 | 94.54510 | 33237 ft | 483 kts | 78° |
| 2026-04-26 02:56 | 55.84431 | 94.66283 | 33240 ft | 482 kts | 78° |
| 2026-04-26 02:57 | 55.85270 | 94.78153 | 33242 ft | 482 kts | 78° |
| 2026-04-26 02:57 | 55.86087 | 94.89871 | 33244 ft | 482 kts | 78° |
| 2026-04-26 02:58 | 55.86903 | 95.01726 | 33247 ft | 482 kts | 78° |
| 2026-04-26 02:58 | 55.87701 | 95.13464 | 33243 ft | 482 kts | 78° |
| 2026-04-26 02:59 | 55.88492 | 95.25295 | 33243 ft | 482 kts | 78° |
| 2026-04-26 02:59 | 55.89269 | 95.37080 | 33238 ft | 482 kts | 78° |
| 2026-04-26 03:00 | 55.90035 | 95.48904 | 33233 ft | 482 kts | 78° |
| 2026-04-26 03:00 | 55.90790 | 95.60706 | 33231 ft | 481 kts | 78° |
| 2026-04-26 03:01 | 55.91536 | 95.72535 | 33231 ft | 482 kts | 78° |
| 2026-04-26 03:01 | 55.92265 | 95.84323 | 33239 ft | 481 kts | 78° |
| 2026-04-26 03:02 | 55.92983 | 95.96104 | 33235 ft | 480 kts | 78° |
| 2026-04-26 03:02 | 55.93693 | 96.07941 | 33247 ft | 481 kts | 78° |
| 2026-04-26 03:03 | 55.94389 | 96.19712 | 33262 ft | 481 kts | 78° |
| 2026-04-26 03:03 | 55.95075 | 96.31551 | 33267 ft | 481 kts | 78° |
| 2026-04-26 03:04 | 55.95747 | 96.43340 | 33271 ft | 481 kts | 78° |
| 2026-04-26 03:04 | 55.96413 | 96.55213 | 33271 ft | 481 kts | 78° |
| 2026-04-26 03:05 | 55.97062 | 96.66981 | 33273 ft | 481 kts | 79° |
| 2026-04-26 03:05 | 55.97701 | 96.78805 | 33277 ft | 481 kts | 79° |
| 2026-04-26 03:06 | 55.98333 | 96.90688 | 33278 ft | 481 kts | 78° |
| 2026-04-26 03:06 | 55.98952 | 97.02554 | 33276 ft | 481 kts | 78° |
| 2026-04-26 03:07 | 55.99553 | 97.14319 | 33272 ft | 480 kts | 78° |
| 2026-04-26 03:07 | 56.00148 | 97.26148 | 33268 ft | 480 kts | 78° |
| 2026-04-26 03:08 | 56.00729 | 97.37934 | 33272 ft | 479 kts | 78° |
| 2026-04-26 03:08 | 56.01303 | 97.49818 | 33283 ft | 480 kts | 78° |
| 2026-04-26 03:09 | 56.01861 | 97.61618 | 33291 ft | 480 kts | 78° |
| 2026-04-26 03:09 | 56.02410 | 97.73438 | 33293 ft | 480 kts | 78° |
| 2026-04-26 03:10 | 56.02948 | 97.85262 | 33297 ft | 480 kts | 78° |
| 2026-04-26 03:10 | 56.03469 | 97.97058 | 33302 ft | 479 kts | 78° |
| 2026-04-26 03:11 | 56.03968 | 98.08896 | 33314 ft | 479 kts | 78° |
| 2026-04-26 03:11 | 56.04453 | 98.20779 | 33313 ft | 480 kts | 78° |
| 2026-04-26 03:12 | 56.04923 | 98.32600 | 33318 ft | 479 kts | 78° |
| 2026-04-26 03:12 | 56.05381 | 98.44440 | 33314 ft | 479 kts | 78° |
| 2026-04-26 03:13 | 56.05826 | 98.56213 | 33309 ft | 478 kts | 78° |
| 2026-04-26 03:13 | 56.06265 | 98.68052 | 33307 ft | 477 kts | 79° |
| 2026-04-26 03:14 | 56.06686 | 98.79861 | 33303 ft | 477 kts | 79° |
| 2026-04-26 03:14 | 56.07102 | 98.91644 | 33312 ft | 477 kts | 79° |
| 2026-04-26 03:15 | 56.07509 | 99.03445 | 33309 ft | 476 kts | 79° |
| 2026-04-26 03:15 | 56.07903 | 99.15205 | 33307 ft | 478 kts | 79° |
| 2026-04-26 03:16 | 56.08386 | 99.27026 | 33303 ft | 473 kts | 75° |
| 2026-04-26 03:16 | 56.09460 | 99.38476 | 33305 ft | 465 kts | 69° |
| 2026-04-26 03:17 | 56.10911 | 99.49661 | 33311 ft | 464 kts | 68° |
| 2026-04-26 03:17 | 56.12380 | 99.60892 | 33313 ft | 464 kts | 68° |
| 2026-04-26 03:18 | 56.13813 | 99.72041 | 33318 ft | 464 kts | 69° |
| 2026-04-26 03:18 | 56.15250 | 99.83327 | 33326 ft | 465 kts | 69° |
| 2026-04-26 03:19 | 56.16667 | 99.94569 | 33321 ft | 465 kts | 69° |
| 2026-04-26 03:19 | 56.18073 | 100.05810 | 33322 ft | 464 kts | 69° |
| 2026-04-26 03:20 | 56.19479 | 100.17131 | 33329 ft | 464 kts | 69° |
| 2026-04-26 03:20 | 56.20857 | 100.28357 | 33329 ft | 465 kts | 69° |
| 2026-04-26 03:21 | 56.22230 | 100.39633 | 33336 ft | 463 kts | 70° |
| 2026-04-26 03:21 | 56.23595 | 100.50885 | 33336 ft | 462 kts | 70° |
| 2026-04-26 03:22 | 56.24955 | 100.62152 | 33338 ft | 463 kts | 70° |
| 2026-04-26 03:22 | 56.26304 | 100.73449 | 33321 ft | 464 kts | 70° |
| 2026-04-26 03:23 | 56.27645 | 100.84772 | 33317 ft | 465 kts | 70° |
| 2026-04-26 03:23 | 56.28977 | 100.96105 | 33322 ft | 464 kts | 70° |
| 2026-04-26 03:24 | 56.30296 | 101.07444 | 33320 ft | 464 kts | 70° |
| 2026-04-26 03:24 | 56.31601 | 101.18775 | 33321 ft | 464 kts | 71° |
| 2026-04-26 03:25 | 56.32900 | 101.30153 | 33325 ft | 464 kts | 70° |
| 2026-04-26 03:25 | 56.34180 | 101.41453 | 33339 ft | 463 kts | 70° |
| 2026-04-26 03:26 | 56.35450 | 101.52787 | 33355 ft | 464 kts | 70° |
| 2026-04-26 03:26 | 56.36587 | 101.64268 | 33360 ft | 468 kts | 74° |
| 2026-04-26 03:27 | 56.37078 | 101.76020 | 33360 ft | 475 kts | 82° |
| 2026-04-26 03:27 | 56.36988 | 101.87917 | 33360 ft | 478 kts | 84° |
| 2026-04-26 03:28 | 56.36824 | 101.99830 | 33360 ft | 478 kts | 84° |
| 2026-04-26 03:28 | 56.36657 | 102.11790 | 33355 ft | 477 kts | 83° |
| 2026-04-26 03:29 | 56.36486 | 102.23661 | 33346 ft | 477 kts | 83° |
| 2026-04-26 03:29 | 56.36302 | 102.35558 | 33343 ft | 477 kts | 83° |
| 2026-04-26 03:30 | 56.36106 | 102.47458 | 33346 ft | 477 kts | 83° |
| 2026-04-26 03:30 | 56.35899 | 102.59405 | 33343 ft | 478 kts | 83° |
| 2026-04-26 03:31 | 56.35677 | 102.71322 | 33339 ft | 479 kts | 84° |
| 2026-04-26 03:31 | 56.35440 | 102.83280 | 33344 ft | 478 kts | 84° |
| 2026-04-26 03:32 | 56.35194 | 102.95205 | 33338 ft | 477 kts | 84° |
| 2026-04-26 03:32 | 56.34936 | 103.07128 | 33322 ft | 477 kts | 84° |
| 2026-04-26 03:33 | 56.34669 | 103.18999 | 33313 ft | 477 kts | 84° |
| 2026-04-26 03:33 | 56.34391 | 103.30866 | 33291 ft | 477 kts | 84° |
| 2026-04-26 03:34 | 56.34097 | 103.42836 | 33297 ft | 478 kts | 84° |
| 2026-04-26 03:34 | 56.33804 | 103.54665 | 33315 ft | 477 kts | 84° |
| 2026-04-26 03:35 | 56.33511 | 103.66545 | 33302 ft | 476 kts | 84° |
| 2026-04-26 03:35 | 56.33205 | 103.78474 | 33291 ft | 476 kts | 84° |
| 2026-04-26 03:36 | 56.32888 | 103.90351 | 33297 ft | 476 kts | 84° |
| 2026-04-26 03:36 | 56.32560 | 104.02159 | 33302 ft | 476 kts | 84° |
| 2026-04-26 03:37 | 56.32216 | 104.14049 | 33311 ft | 475 kts | 84° |
| 2026-04-26 03:37 | 56.31854 | 104.25852 | 33315 ft | 477 kts | 85° |
| 2026-04-26 03:38 | 56.31473 | 104.37685 | 33309 ft | 475 kts | 85° |
| 2026-04-26 03:38 | 56.31081 | 104.49497 | 33294 ft | 475 kts | 85° |
| 2026-04-26 03:39 | 56.30678 | 104.61375 | 33290 ft | 474 kts | 85° |
| 2026-04-26 03:39 | 56.30267 | 104.73123 | 33293 ft | 475 kts | 86° |
| 2026-04-26 03:40 | 56.29841 | 104.84994 | 33296 ft | 475 kts | 86° |
| 2026-04-26 03:40 | 56.29407 | 104.96729 | 33301 ft | 474 kts | 86° |
| 2026-04-26 03:41 | 56.28961 | 105.08551 | 33302 ft | 475 kts | 86° |
| 2026-04-26 03:41 | 56.28504 | 105.20302 | 33303 ft | 473 kts | 86° |
| 2026-04-26 03:42 | 56.28036 | 105.32079 | 33307 ft | 473 kts | 86° |
| 2026-04-26 03:42 | 56.27554 | 105.43875 | 33301 ft | 473 kts | 86° |
| 2026-04-26 03:43 | 56.27069 | 105.55577 | 33291 ft | 473 kts | 86° |
| 2026-04-26 03:43 | 56.26568 | 105.67394 | 33283 ft | 473 kts | 87° |
| 2026-04-26 03:44 | 56.26061 | 105.79099 | 33269 ft | 474 kts | 88° |
| 2026-04-26 03:44 | 56.25536 | 105.90895 | 33287 ft | 474 kts | 88° |
| 2026-04-26 03:45 | 56.25005 | 106.02574 | 33318 ft | 473 kts | 88° |
| 2026-04-26 03:45 | 56.24460 | 106.14359 | 33296 ft | 473 kts | 88° |
| 2026-04-26 03:46 | 56.23905 | 106.26090 | 33279 ft | 472 kts | 88° |
| 2026-04-26 03:47 | 56.23057 | 106.43600 | 33263 ft | 472 kts | 88° |
| 2026-04-26 03:47 | 56.22474 | 106.55335 | 33283 ft | 472 kts | 88° |
| 2026-04-26 03:48 | 56.21877 | 106.67071 | 33270 ft | 473 kts | 89° |
| 2026-04-26 03:48 | 56.21276 | 106.78748 | 33241 ft | 473 kts | 89° |
| 2026-04-26 03:49 | 56.20657 | 106.90492 | 33233 ft | 474 kts | 89° |
| 2026-04-26 03:49 | 56.20031 | 107.02141 | 33237 ft | 473 kts | 89° |
| 2026-04-26 03:50 | 56.19382 | 107.13850 | 33237 ft | 472 kts | 89° |
| 2026-04-26 03:50 | 56.18735 | 107.25538 | 33258 ft | 472 kts | 89° |
| 2026-04-26 03:51 | 56.18077 | 107.37273 | 33266 ft | 473 kts | 89° |
| 2026-04-26 03:51 | 56.17411 | 107.48914 | 33276 ft | 473 kts | 90° |
| 2026-04-26 03:52 | 56.16727 | 107.60642 | 33282 ft | 473 kts | 90° |
| 2026-04-26 03:52 | 56.16036 | 107.72330 | 33287 ft | 473 kts | 91° |
| 2026-04-26 03:53 | 56.15336 | 107.83960 | 33297 ft | 473 kts | 91° |
| 2026-04-26 03:53 | 56.14621 | 107.95649 | 33289 ft | 473 kts | 91° |
| 2026-04-26 03:54 | 56.13900 | 108.07294 | 33278 ft | 474 kts | 91° |
| 2026-04-26 03:54 | 56.13159 | 108.19033 | 33258 ft | 474 kts | 91° |
| 2026-04-26 03:55 | 56.12416 | 108.30645 | 33223 ft | 473 kts | 91° |
| 2026-04-26 03:55 | 56.11659 | 108.42293 | 33209 ft | 472 kts | 91° |
| 2026-04-26 03:56 | 56.10891 | 108.53938 | 33195 ft | 472 kts | 91° |
| 2026-04-26 03:56 | 56.10115 | 108.65546 | 33171 ft | 472 kts | 92° |
| 2026-04-26 03:57 | 56.09324 | 108.77185 | 33175 ft | 473 kts | 92° |
| 2026-04-26 03:57 | 56.08521 | 108.88842 | 33174 ft | 473 kts | 92° |
| 2026-04-26 03:58 | 56.07710 | 109.00480 | 33172 ft | 472 kts | 93° |
| 2026-04-26 03:58 | 56.06893 | 109.12020 | 33144 ft | 471 kts | 93° |
| 2026-04-26 03:59 | 56.06062 | 109.23611 | 33131 ft | 472 kts | 93° |
| 2026-04-26 03:59 | 56.05218 | 109.35212 | 33120 ft | 471 kts | 92° |
| 2026-04-26 04:00 | 56.04369 | 109.46764 | 33123 ft | 472 kts | 93° |
| 2026-04-26 04:00 | 56.03508 | 109.58318 | 33125 ft | 471 kts | 93° |
| 2026-04-26 04:01 | 56.02631 | 109.69913 | 33131 ft | 472 kts | 94° |
| 2026-04-26 04:01 | 56.01742 | 109.81519 | 33131 ft | 472 kts | 94° |
| 2026-04-26 04:02 | 56.00847 | 109.93060 | 33126 ft | 472 kts | 94° |
| 2026-04-26 04:02 | 55.99942 | 110.04655 | 33128 ft | 472 kts | 94° |
| 2026-04-26 04:03 | 55.99034 | 110.16153 | 33174 ft | 472 kts | 94° |
| 2026-04-26 04:03 | 55.98109 | 110.27716 | 33217 ft | 472 kts | 94° |
| 2026-04-26 04:04 | 55.97175 | 110.39235 | 33231 ft | 472 kts | 94° |
| 2026-04-26 04:04 | 55.96230 | 110.50761 | 33219 ft | 472 kts | 94° |
| 2026-04-26 04:05 | 55.95273 | 110.62302 | 33196 ft | 471 kts | 94° |
| 2026-04-26 04:05 | 55.94303 | 110.73834 | 33184 ft | 471 kts | 95° |
| 2026-04-26 04:06 | 55.93335 | 110.85302 | 33185 ft | 471 kts | 95° |
| 2026-04-26 04:06 | 55.92348 | 110.96846 | 33205 ft | 472 kts | 95° |
| 2026-04-26 04:07 | 55.91355 | 111.08331 | 33227 ft | 471 kts | 96° |
| 2026-04-26 04:07 | 55.90346 | 111.19849 | 33238 ft | 471 kts | 96° |
| 2026-04-26 04:08 | 55.89335 | 111.31283 | 33242 ft | 470 kts | 96° |
| 2026-04-26 04:08 | 55.88308 | 111.42737 | 33239 ft | 469 kts | 96° |
| 2026-04-26 04:09 | 55.87275 | 111.54099 | 33235 ft | 468 kts | 96° |
| 2026-04-26 04:09 | 55.86226 | 111.65508 | 33239 ft | 468 kts | 97° |
| 2026-04-26 04:10 | 55.85166 | 111.76924 | 33246 ft | 469 kts | 97° |
| 2026-04-26 04:10 | 55.84099 | 111.88298 | 33241 ft | 469 kts | 97° |
| 2026-04-26 04:11 | 55.83025 | 111.99632 | 33226 ft | 468 kts | 97° |
| 2026-04-26 04:11 | 55.81934 | 112.11011 | 33208 ft | 467 kts | 97° |
| 2026-04-26 04:12 | 55.80839 | 112.22311 | 33171 ft | 466 kts | 97° |
| 2026-04-26 04:12 | 55.79734 | 112.33616 | 33154 ft | 465 kts | 97° |
| 2026-04-26 04:13 | 55.78621 | 112.44911 | 33158 ft | 466 kts | 97° |
| 2026-04-26 04:13 | 55.77497 | 112.56177 | 33169 ft | 465 kts | 98° |
| 2026-04-26 04:14 | 55.76365 | 112.67430 | 33150 ft | 465 kts | 98° |
| 2026-04-26 04:14 | 55.75223 | 112.78671 | 33150 ft | 464 kts | 99° |
| 2026-04-26 04:15 | 55.74073 | 112.89871 | 33166 ft | 464 kts | 99° |
| 2026-04-26 04:15 | 55.72914 | 113.01066 | 33197 ft | 463 kts | 99° |
| 2026-04-26 04:16 | 55.71743 | 113.12263 | 33215 ft | 463 kts | 99° |
| 2026-04-26 04:16 | 55.70564 | 113.23454 | 33223 ft | 463 kts | 99° |
| 2026-04-26 04:17 | 55.69381 | 113.34568 | 33188 ft | 462 kts | 99° |
| 2026-04-26 04:17 | 55.68185 | 113.45692 | 33159 ft | 460 kts | 99° |
| 2026-04-26 04:18 | 55.66985 | 113.56764 | 33135 ft | 459 kts | 100° |
| 2026-04-26 04:18 | 55.65775 | 113.67825 | 33122 ft | 459 kts | 101° |
| 2026-04-26 04:19 | 55.64558 | 113.78863 | 33151 ft | 461 kts | 101° |
| 2026-04-26 04:19 | 55.63322 | 113.89957 | 33137 ft | 461 kts | 101° |
| 2026-04-26 04:20 | 55.62082 | 114.01008 | 33152 ft | 460 kts | 101° |
| 2026-04-26 04:20 | 55.60838 | 114.11984 | 33130 ft | 458 kts | 102° |
| 2026-04-26 04:21 | 55.59575 | 114.23021 | 33133 ft | 459 kts | 101° |
| 2026-04-26 04:21 | 55.58305 | 114.34049 | 33157 ft | 457 kts | 101° |
| 2026-04-26 04:22 | 55.57042 | 114.44916 | 33133 ft | 455 kts | 101° |
| 2026-04-26 04:22 | 55.55767 | 114.55802 | 33132 ft | 453 kts | 101° |
| 2026-04-26 04:23 | 55.54483 | 114.66685 | 33120 ft | 452 kts | 102° |
| 2026-04-26 04:23 | 55.53201 | 114.77451 | 33094 ft | 452 kts | 102° |
| 2026-04-26 04:24 | 55.51899 | 114.88298 | 33059 ft | 452 kts | 102° |
| 2026-04-26 04:24 | 55.50594 | 114.99091 | 33022 ft | 452 kts | 102° |
| 2026-04-26 04:25 | 55.49273 | 115.09931 | 33019 ft | 453 kts | 102° |
| 2026-04-26 04:25 | 55.47950 | 115.20696 | 33067 ft | 452 kts | 103° |
| 2026-04-26 04:26 | 55.46619 | 115.31445 | 33106 ft | 451 kts | 103° |
| 2026-04-26 04:26 | 55.45276 | 115.42209 | 33103 ft | 450 kts | 103° |
| 2026-04-26 04:27 | 55.43930 | 115.52912 | 33079 ft | 450 kts | 103° |
| 2026-04-26 04:27 | 55.42577 | 115.63585 | 33063 ft | 450 kts | 103° |
| 2026-04-26 04:28 | 55.41209 | 115.74292 | 33145 ft | 449 kts | 104° |
| 2026-04-26 04:28 | 55.39832 | 115.84999 | 33124 ft | 449 kts | 104° |
| 2026-04-26 04:29 | 55.38457 | 115.95611 | 33134 ft | 448 kts | 104° |
| 2026-04-26 04:29 | 55.37070 | 116.06240 | 33129 ft | 447 kts | 104° |
| 2026-04-26 04:30 | 55.35676 | 116.16842 | 33117 ft | 447 kts | 104° |
| 2026-04-26 04:30 | 55.34271 | 116.27450 | 33104 ft | 447 kts | 104° |
| 2026-04-26 04:31 | 55.32852 | 116.38055 | 33115 ft | 448 kts | 104° |
| 2026-04-26 04:31 | 55.31419 | 116.48601 | 33111 ft | 448 kts | 104° |
| 2026-04-26 04:32 | 55.29974 | 116.59170 | 33103 ft | 447 kts | 104° |
| 2026-04-26 04:32 | 55.28514 | 116.69773 | 33107 ft | 448 kts | 104° |
| 2026-04-26 04:33 | 55.27055 | 116.80306 | 33083 ft | 447 kts | 105° |
| 2026-04-26 04:33 | 55.25581 | 116.90877 | 33104 ft | 447 kts | 105° |
| 2026-04-26 04:34 | 55.24096 | 117.01433 | 33099 ft | 448 kts | 105° |
| 2026-04-26 04:34 | 55.22601 | 117.12000 | 33103 ft | 448 kts | 105° |
| 2026-04-26 04:35 | 55.21106 | 117.22505 | 33116 ft | 448 kts | 105° |
| 2026-04-26 04:35 | 55.19598 | 117.33039 | 33127 ft | 448 kts | 104° |
| 2026-04-26 04:36 | 55.18081 | 117.43563 | 33114 ft | 448 kts | 104° |
| 2026-04-26 04:36 | 55.16548 | 117.54112 | 33102 ft | 448 kts | 104° |
| 2026-04-26 04:37 | 55.15042 | 117.64592 | 33106 ft | 449 kts | 104° |
| 2026-04-26 04:37 | 55.13536 | 117.75166 | 33102 ft | 449 kts | 105° |
| 2026-04-26 04:38 | 55.12020 | 117.85717 | 33108 ft | 449 kts | 105° |
| 2026-04-26 04:38 | 55.10498 | 117.96217 | 33087 ft | 449 kts | 105° |
| 2026-04-26 04:39 | 55.08953 | 118.06750 | 33083 ft | 449 kts | 105° |
| 2026-04-26 04:39 | 55.07370 | 118.17247 | 33073 ft | 449 kts | 105° |
| 2026-04-26 04:40 | 55.05775 | 118.27740 | 33074 ft | 450 kts | 105° |
| 2026-04-26 04:40 | 55.04171 | 118.38243 | 33080 ft | 450 kts | 105° |
| 2026-04-26 04:41 | 55.02562 | 118.48710 | 33071 ft | 450 kts | 105° |
| 2026-04-26 04:41 | 55.00936 | 118.59232 | 33072 ft | 450 kts | 105° |
| 2026-04-26 04:42 | 54.99307 | 118.69706 | 33086 ft | 451 kts | 105° |
| 2026-04-26 04:42 | 54.97673 | 118.80151 | 33095 ft | 451 kts | 105° |
| 2026-04-26 04:43 | 54.96016 | 118.90679 | 33076 ft | 451 kts | 105° |
| 2026-04-26 04:43 | 54.94358 | 119.01136 | 33056 ft | 452 kts | 105° |
| 2026-04-26 04:44 | 54.92681 | 119.11661 | 33062 ft | 452 kts | 105° |
| 2026-04-26 04:44 | 54.90997 | 119.22145 | 33077 ft | 452 kts | 105° |
| 2026-04-26 04:45 | 54.89315 | 119.32580 | 33086 ft | 452 kts | 105° |
| 2026-04-26 04:45 | 54.87621 | 119.43057 | 33089 ft | 451 kts | 105° |
| 2026-04-26 04:46 | 54.85927 | 119.53471 | 33086 ft | 451 kts | 105° |
| 2026-04-26 04:46 | 54.84219 | 119.63910 | 33083 ft | 452 kts | 105° |
| 2026-04-26 04:47 | 54.82503 | 119.74323 | 33083 ft | 452 kts | 106° |
| 2026-04-26 04:47 | 54.80773 | 119.84771 | 33077 ft | 452 kts | 106° |
| 2026-04-26 04:48 | 54.78168 | 120.00375 | 33049 ft | 452 kts | 106° |
| 2026-04-26 04:48 | 54.76411 | 120.10828 | 33045 ft | 452 kts | 106° |
| 2026-04-26 04:49 | 54.74642 | 120.21290 | 33049 ft | 464 kts | 106° |
| 2026-04-26 04:49 | 54.72862 | 120.31744 | 33058 ft | 452 kts | 106° |
| 2026-04-26 04:50 | 54.71088 | 120.42109 | 33064 ft | 451 kts | 106° |
| 2026-04-26 04:50 | 54.69304 | 120.52468 | 33064 ft | 451 kts | 106° |
| 2026-04-26 04:51 | 54.67516 | 120.62788 | 33053 ft | 451 kts | 106° |
| 2026-04-26 04:51 | 54.65720 | 120.73098 | 33042 ft | 450 kts | 107° |
| 2026-04-26 04:52 | 54.63913 | 120.83417 | 33036 ft | 450 kts | 107° |
| 2026-04-26 04:52 | 54.62089 | 120.93767 | 33037 ft | 450 kts | 107° |
| 2026-04-26 04:53 | 54.60274 | 121.04010 | 33038 ft | 449 kts | 107° |
| 2026-04-26 04:53 | 54.58445 | 121.14280 | 33039 ft | 450 kts | 107° |
| 2026-04-26 04:54 | 54.56602 | 121.24561 | 33024 ft | 449 kts | 107° |
| 2026-04-26 04:54 | 54.54777 | 121.34686 | 33016 ft | 439 kts | 107° |
| 2026-04-26 04:55 | 54.52977 | 121.44623 | 33004 ft | 437 kts | 107° |
| 2026-04-26 04:55 | 54.51168 | 121.54549 | 32996 ft | 437 kts | 107° |
| 2026-04-26 04:56 | 54.49347 | 121.64495 | 32990 ft | 437 kts | 107° |
| 2026-04-26 04:56 | 54.47518 | 121.74430 | 32984 ft | 437 kts | 107° |
| 2026-04-26 04:57 | 54.45688 | 121.84319 | 32994 ft | 437 kts | 107° |
| 2026-04-26 04:57 | 54.43850 | 121.94198 | 32997 ft | 436 kts | 108° |
| 2026-04-26 04:58 | 54.42001 | 122.04075 | 32998 ft | 436 kts | 108° |
| 2026-04-26 04:58 | 54.39917 | 122.13806 | 32995 ft | 435 kts | 111° |
| 2026-04-26 04:59 | 54.37676 | 122.23386 | 32996 ft | 435 kts | 111° |
| 2026-04-26 04:59 | 54.35421 | 122.32990 | 32996 ft | 434 kts | 111° |
| 2026-04-26 05:00 | 54.33178 | 122.42500 | 33001 ft | 434 kts | 111° |
| 2026-04-26 05:00 | 54.30920 | 122.52035 | 33008 ft | 434 kts | 111° |
| 2026-04-26 05:01 | 54.28640 | 122.61620 | 33013 ft | 433 kts | 111° |
| 2026-04-26 05:01 | 54.26374 | 122.71095 | 33016 ft | 433 kts | 112° |
| 2026-04-26 05:02 | 54.24096 | 122.80581 | 33015 ft | 432 kts | 112° |
| 2026-04-26 05:02 | 54.21815 | 122.90045 | 33026 ft | 432 kts | 112° |
| 2026-04-26 05:03 | 54.19530 | 122.99482 | 33016 ft | 431 kts | 112° |
| 2026-04-26 05:03 | 54.17243 | 123.08889 | 33025 ft | 431 kts | 112° |
| 2026-04-26 05:04 | 54.14946 | 123.18290 | 33024 ft | 430 kts | 112° |
| 2026-04-26 05:04 | 54.12643 | 123.27676 | 33026 ft | 430 kts | 111° |
| 2026-04-26 05:05 | 54.10341 | 123.37023 | 33033 ft | 429 kts | 111° |
| 2026-04-26 05:05 | 54.08046 | 123.46300 | 33016 ft | 429 kts | 111° |
| 2026-04-26 05:06 | 54.05730 | 123.55626 | 33019 ft | 428 kts | 111° |
| 2026-04-26 05:06 | 54.03411 | 123.64921 | 33028 ft | 427 kts | 111° |
| 2026-04-26 05:07 | 54.01102 | 123.74142 | 33019 ft | 426 kts | 112° |
| 2026-04-26 05:07 | 53.98789 | 123.83327 | 33021 ft | 425 kts | 112° |
| 2026-04-26 05:08 | 53.96464 | 123.92532 | 33026 ft | 424 kts | 112° |
| 2026-04-26 05:08 | 53.94130 | 124.01741 | 33030 ft | 424 kts | 112° |
| 2026-04-26 05:09 | 53.91800 | 124.10889 | 33022 ft | 424 kts | 112° |
| 2026-04-26 05:09 | 53.89472 | 124.19999 | 33014 ft | 424 kts | 112° |
| 2026-04-26 05:10 | 53.87122 | 124.29142 | 33007 ft | 423 kts | 111° |
| 2026-04-26 05:10 | 53.84772 | 124.38240 | 33002 ft | 423 kts | 111° |
| 2026-04-26 05:11 | 53.82414 | 124.47331 | 32998 ft | 422 kts | 111° |
| 2026-04-26 05:11 | 53.80057 | 124.56392 | 32997 ft | 422 kts | 111° |
| 2026-04-26 05:12 | 53.77709 | 124.65379 | 32999 ft | 422 kts | 112° |
| 2026-04-26 05:12 | 53.75326 | 124.74459 | 33000 ft | 422 kts | 112° |
| 2026-04-26 05:13 | 53.72962 | 124.83437 | 32990 ft | 421 kts | 112° |
| 2026-04-26 05:13 | 53.70581 | 124.92445 | 33003 ft | 421 kts | 112° |
| 2026-04-26 05:14 | 53.68201 | 125.01411 | 32999 ft | 420 kts | 111° |
| 2026-04-26 05:14 | 53.65820 | 125.10345 | 33001 ft | 419 kts | 111° |
| 2026-04-26 05:15 | 53.63436 | 125.19257 | 33005 ft | 419 kts | 111° |
| 2026-04-26 05:15 | 53.61055 | 125.28123 | 33012 ft | 418 kts | 111° |
| 2026-04-26 05:16 | 53.58660 | 125.37014 | 33007 ft | 418 kts | 111° |
| 2026-04-26 05:16 | 53.56252 | 125.45910 | 33012 ft | 418 kts | 111° |
| 2026-04-26 05:17 | 53.53846 | 125.54769 | 33004 ft | 418 kts | 111° |
| 2026-04-26 05:17 | 53.51436 | 125.63609 | 33018 ft | 417 kts | 111° |
| 2026-04-26 05:18 | 53.48996 | 125.72369 | 33018 ft | 418 kts | 114° |
| 2026-04-26 05:18 | 53.46125 | 125.80804 | 33013 ft | 419 kts | 119° |
| 2026-04-26 05:19 | 53.42729 | 125.88796 | 33004 ft | 422 kts | 124° |
| 2026-04-26 05:19 | 53.39137 | 125.96490 | 33010 ft | 422 kts | 123° |
| 2026-04-26 05:20 | 53.35523 | 126.04224 | 33013 ft | 422 kts | 123° |
| 2026-04-26 05:20 | 53.31939 | 126.11867 | 33013 ft | 422 kts | 123° |
| 2026-04-26 05:21 | 53.28324 | 126.19545 | 33007 ft | 420 kts | 123° |
| 2026-04-26 05:21 | 53.24717 | 126.27181 | 33001 ft | 420 kts | 123° |
| 2026-04-26 05:22 | 53.21078 | 126.34857 | 33003 ft | 421 kts | 123° |
| 2026-04-26 05:22 | 53.17479 | 126.42431 | 33001 ft | 420 kts | 123° |
| 2026-04-26 05:23 | 53.13856 | 126.50030 | 33003 ft | 420 kts | 123° |
| 2026-04-26 05:23 | 53.10225 | 126.57627 | 32999 ft | 421 kts | 123° |
| 2026-04-26 05:24 | 53.06571 | 126.65250 | 33001 ft | 421 kts | 123° |
| 2026-04-26 05:24 | 53.02929 | 126.72813 | 32987 ft | 421 kts | 123° |
| 2026-04-26 05:25 | 52.99276 | 126.80388 | 32989 ft | 420 kts | 123° |
| 2026-04-26 05:25 | 52.95620 | 126.87944 | 32964 ft | 421 kts | 123° |
| 2026-04-26 05:26 | 52.91969 | 126.95473 | 32980 ft | 419 kts | 123° |
| 2026-04-26 05:26 | 52.88316 | 127.02979 | 32987 ft | 420 kts | 123° |
| 2026-04-26 05:27 | 52.84669 | 127.10442 | 32935 ft | 421 kts | 123° |
| 2026-04-26 05:27 | 52.80978 | 127.17979 | 32936 ft | 422 kts | 123° |
| 2026-04-26 05:28 | 52.77309 | 127.25458 | 32976 ft | 423 kts | 123° |
| 2026-04-26 05:28 | 52.73603 | 127.32985 | 33010 ft | 422 kts | 123° |
| 2026-04-26 05:29 | 52.69912 | 127.40458 | 32944 ft | 423 kts | 123° |
| 2026-04-26 05:29 | 52.66177 | 127.47968 | 32948 ft | 424 kts | 123° |
| 2026-04-26 05:30 | 52.62419 | 127.55447 | 32942 ft | 426 kts | 123° |
| 2026-04-26 05:30 | 52.58667 | 127.62898 | 32975 ft | 425 kts | 123° |
| 2026-04-26 05:31 | 52.54906 | 127.70344 | 32953 ft | 427 kts | 124° |
| 2026-04-26 05:31 | 52.51109 | 127.77850 | 32979 ft | 428 kts | 124° |
| 2026-04-26 05:32 | 52.47326 | 127.85301 | 32971 ft | 428 kts | 124° |
| 2026-04-26 05:32 | 52.43512 | 127.92792 | 32933 ft | 429 kts | 124° |
| 2026-04-26 05:33 | 52.39677 | 128.00302 | 32937 ft | 431 kts | 124° |
| 2026-04-26 05:33 | 52.35851 | 128.07773 | 32918 ft | 432 kts | 124° |
| 2026-04-26 05:34 | 52.31982 | 128.15308 | 32934 ft | 434 kts | 124° |
| 2026-04-26 05:34 | 52.28110 | 128.22821 | 32965 ft | 433 kts | 124° |
| 2026-04-26 05:35 | 52.24246 | 128.30299 | 32913 ft | 434 kts | 125° |
| 2026-04-26 05:35 | 52.20368 | 128.37785 | 32960 ft | 435 kts | 125° |
| 2026-04-26 05:36 | 52.16455 | 128.45314 | 32948 ft | 437 kts | 125° |
| 2026-04-26 05:36 | 52.12548 | 128.52802 | 32931 ft | 437 kts | 125° |
| 2026-04-26 05:37 | 52.08596 | 128.60364 | 32932 ft | 439 kts | 125° |
| 2026-04-26 05:37 | 52.04656 | 128.67877 | 32946 ft | 440 kts | 127° |
| 2026-04-26 05:38 | 52.00687 | 128.75423 | 32953 ft | 441 kts | 127° |
| 2026-04-26 05:38 | 51.96713 | 128.82951 | 32924 ft | 443 kts | 127° |
| 2026-04-26 05:39 | 51.92710 | 128.90515 | 32949 ft | 445 kts | 127° |
| 2026-04-26 05:39 | 51.88665 | 128.98135 | 32950 ft | 446 kts | 127° |
| 2026-04-26 05:40 | 51.84633 | 129.05710 | 32966 ft | 447 kts | 127° |
| 2026-04-26 05:40 | 51.80597 | 129.13269 | 32954 ft | 447 kts | 128° |
| 2026-04-26 05:41 | 51.76537 | 129.20848 | 32957 ft | 447 kts | 128° |
| 2026-04-26 05:41 | 51.72475 | 129.28410 | 32952 ft | 448 kts | 128° |
| 2026-04-26 05:42 | 51.68392 | 129.35988 | 32951 ft | 448 kts | 128° |
| 2026-04-26 05:42 | 51.64325 | 129.43515 | 32943 ft | 449 kts | 128° |
| 2026-04-26 05:43 | 51.60235 | 129.51060 | 32939 ft | 449 kts | 129° |
| 2026-04-26 05:43 | 51.56151 | 129.58572 | 32938 ft | 449 kts | 129° |
| 2026-04-26 05:44 | 51.52050 | 129.66100 | 32928 ft | 450 kts | 130° |
| 2026-04-26 05:44 | 51.47942 | 129.73608 | 32922 ft | 450 kts | 130° |
| 2026-04-26 05:45 | 51.43794 | 129.81175 | 32921 ft | 451 kts | 130° |
| 2026-04-26 05:45 | 51.39676 | 129.88667 | 32927 ft | 452 kts | 130° |
| 2026-04-26 05:46 | 51.35527 | 129.96187 | 32923 ft | 452 kts | 130° |
| 2026-04-26 05:46 | 51.31371 | 130.03630 | 32924 ft | 452 kts | 131° |
| 2026-04-26 05:47 | 51.27135 | 130.11024 | 32921 ft | 452 kts | 131° |
| 2026-04-26 05:47 | 51.22891 | 130.18411 | 32923 ft | 452 kts | 131° |
| 2026-04-26 05:48 | 51.18642 | 130.25801 | 32918 ft | 453 kts | 132° |
| 2026-04-26 05:48 | 51.14422 | 130.33125 | 32919 ft | 454 kts | 132° |
| 2026-04-26 05:49 | 51.08088 | 130.44076 | 32914 ft | 455 kts | 132° |
| 2026-04-26 05:50 | 51.03811 | 130.51445 | 32909 ft | 455 kts | 132° |
| 2026-04-26 05:50 | 50.99510 | 130.58835 | 32909 ft | 456 kts | 132° |
| 2026-04-26 05:51 | 50.95232 | 130.66161 | 32891 ft | 456 kts | 133° |
| 2026-04-26 05:51 | 50.90927 | 130.73518 | 32874 ft | 455 kts | 133° |
| 2026-04-26 05:52 | 50.86655 | 130.80800 | 32870 ft | 453 kts | 134° |
| 2026-04-26 05:52 | 50.82378 | 130.88060 | 32875 ft | 454 kts | 134° |
| 2026-04-26 05:53 | 50.78081 | 130.95323 | 32877 ft | 454 kts | 134° |
| 2026-04-26 05:53 | 50.73780 | 131.02573 | 32879 ft | 454 kts | 134° |
| 2026-04-26 05:54 | 50.69452 | 131.09839 | 32884 ft | 454 kts | 134° |
| 2026-04-26 05:54 | 50.65141 | 131.17064 | 32881 ft | 454 kts | 134° |
| 2026-04-26 05:55 | 50.60851 | 131.24243 | 32879 ft | 453 kts | 135° |
| 2026-04-26 05:55 | 50.56515 | 131.31467 | 32882 ft | 454 kts | 135° |
| 2026-04-26 05:56 | 50.52212 | 131.38626 | 32893 ft | 455 kts | 135° |
| 2026-04-26 05:56 | 50.47865 | 131.45827 | 32890 ft | 455 kts | 135° |
| 2026-04-26 05:57 | 50.43528 | 131.52995 | 32883 ft | 456 kts | 136° |
| 2026-04-26 05:57 | 50.39155 | 131.60202 | 32889 ft | 456 kts | 136° |
| 2026-04-26 05:58 | 50.34802 | 131.67355 | 32887 ft | 457 kts | 136° |
| 2026-04-26 05:58 | 50.30441 | 131.74507 | 32883 ft | 457 kts | 137° |
| 2026-04-26 05:59 | 50.26048 | 131.81692 | 32886 ft | 457 kts | 137° |
| 2026-04-26 05:59 | 50.21681 | 131.88811 | 32887 ft | 457 kts | 137° |
| 2026-04-26 06:00 | 50.17278 | 131.95960 | 32895 ft | 458 kts | 137° |
| 2026-04-26 06:00 | 50.12918 | 132.03020 | 32893 ft | 459 kts | 137° |
| 2026-04-26 06:01 | 50.09545 | 132.08467 | 32892 ft | 459 kts | 138° |
| 2026-04-26 06:01 | 50.05750 | 132.14754 | 32891 ft | 461 kts | 135° |
| 2026-04-26 06:02 | 50.01734 | 132.22681 | 32886 ft | 464 kts | 128° |
| 2026-04-26 06:02 | 49.98959 | 132.29330 | 32889 ft | 454 kts | 125° |
| 2026-04-26 06:02 | 49.97310 | 132.33472 | 32888 ft | 440 kts | 125° |
| 2026-04-26 06:03 | 49.95730 | 132.37434 | 32885 ft | 426 kts | 126° |
| 2026-04-26 06:03 | 49.94206 | 132.41244 | 32883 ft | 412 kts | 126° |
| 2026-04-26 06:03 | 49.92721 | 132.44943 | 32885 ft | 399 kts | 126° |
| 2026-04-26 06:04 | 49.89831 | 132.52103 | 32891 ft | 390 kts | 126° |
| 2026-04-26 06:04 | 49.86955 | 132.59201 | 32889 ft | 390 kts | 126° |
| 2026-04-26 06:05 | 49.84074 | 132.66298 | 32880 ft | 391 kts | 127° |
| 2026-04-26 06:05 | 49.81192 | 132.73379 | 32882 ft | 390 kts | 127° |
| 2026-04-26 06:06 | 49.78296 | 132.80484 | 32873 ft | 389 kts | 127° |
| 2026-04-26 06:06 | 49.75416 | 132.87524 | 32875 ft | 390 kts | 127° |
| 2026-04-26 06:07 | 49.72519 | 132.94589 | 32882 ft | 390 kts | 127° |
| 2026-04-26 06:07 | 49.69624 | 133.01625 | 32884 ft | 390 kts | 127° |
| 2026-04-26 06:08 | 49.66724 | 133.08666 | 32893 ft | 390 kts | 127° |
| 2026-04-26 06:08 | 49.63821 | 133.15694 | 32895 ft | 390 kts | 127° |
| 2026-04-26 06:09 | 49.60907 | 133.22725 | 32903 ft | 390 kts | 127° |
| 2026-04-26 06:09 | 49.57989 | 133.29744 | 32906 ft | 390 kts | 127° |
| 2026-04-26 06:10 | 49.55072 | 133.36749 | 32912 ft | 390 kts | 127° |
| 2026-04-26 06:10 | 49.52137 | 133.43774 | 32918 ft | 390 kts | 127° |
| 2026-04-26 06:11 | 49.49220 | 133.50749 | 32918 ft | 390 kts | 128° |
| 2026-04-26 06:11 | 49.46280 | 133.57750 | 32921 ft | 390 kts | 128° |
| 2026-04-26 06:12 | 49.43354 | 133.64700 | 32916 ft | 390 kts | 128° |
| 2026-04-26 06:12 | 49.40415 | 133.71677 | 32915 ft | 390 kts | 129° |
| 2026-04-26 06:13 | 49.37471 | 133.78654 | 32910 ft | 390 kts | 129° |
| 2026-04-26 06:13 | 49.34539 | 133.85594 | 32911 ft | 390 kts | 129° |
| 2026-04-26 06:14 | 49.31580 | 133.92580 | 32911 ft | 391 kts | 129° |
| 2026-04-26 06:14 | 49.28626 | 133.99535 | 32907 ft | 391 kts | 129° |
| 2026-04-26 06:15 | 49.25664 | 134.06494 | 32904 ft | 389 kts | 130° |
| 2026-04-26 06:15 | 49.24199 | 134.09937 | 32684 ft | 385 kts | 130° |
| 2026-04-26 06:15 | 49.22744 | 134.13348 | 32336 ft | 384 kts | 130° |
| 2026-04-26 06:15 | 49.21301 | 134.16724 | 32006 ft | 383 kts | 131° |
| 2026-04-26 06:16 | 49.19858 | 134.20096 | 31707 ft | 380 kts | 131° |
| 2026-04-26 06:16 | 49.18394 | 134.23512 | 31156 ft | 386 kts | 132° |
| 2026-04-26 06:16 | 49.16919 | 134.26933 | 30338 ft | 392 kts | 132° |
| 2026-04-26 06:16 | 49.15424 | 134.30386 | 29510 ft | 401 kts | 132° |
| 2026-04-26 06:17 | 49.13879 | 134.33960 | 28612 ft | 403 kts | 131° |
| 2026-04-26 06:17 | 49.12363 | 134.37476 | 27766 ft | 402 kts | 131° |
| 2026-04-26 06:17 | 49.10834 | 134.41020 | 26908 ft | 400 kts | 130° |
| 2026-04-26 06:17 | 49.09249 | 134.44438 | 26030 ft | 391 kts | 140° |
| 2026-04-26 06:18 | 49.07284 | 134.47111 | 25138 ft | 375 kts | 154° |
| 2026-04-26 06:18 | 49.05048 | 134.48910 | 24244 ft | 362 kts | 164° |
| 2026-04-26 06:18 | 49.02710 | 134.50334 | 23300 ft | 360 kts | 165° |
| 2026-04-26 06:18 | 49.00420 | 134.51714 | 22359 ft | 358 kts | 164° |
| 2026-04-26 06:19 | 48.98122 | 134.53104 | 21432 ft | 356 kts | 163° |
| 2026-04-26 06:19 | 48.95845 | 134.54488 | 20500 ft | 354 kts | 163° |
| 2026-04-26 06:19 | 48.93605 | 134.55853 | 19580 ft | 352 kts | 163° |
| 2026-04-26 06:19 | 48.91354 | 134.57231 | 18665 ft | 350 kts | 163° |
| 2026-04-26 06:20 | 48.89101 | 134.58606 | 17769 ft | 348 kts | 162° |
| 2026-04-26 06:20 | 48.86871 | 134.59963 | 16863 ft | 346 kts | 161° |
| 2026-04-26 06:20 | 48.84674 | 134.61304 | 15969 ft | 345 kts | 161° |
| 2026-04-26 06:20 | 48.82469 | 134.62648 | 15056 ft | 343 kts | 160° |
| 2026-04-26 06:21 | 48.80257 | 134.64000 | 14142 ft | 341 kts | 159° |
| 2026-04-26 06:21 | 48.78075 | 134.65330 | 13234 ft | 339 kts | 159° |
| 2026-04-26 06:21 | 48.75909 | 134.66655 | 12314 ft | 337 kts | 159° |
| 2026-04-26 06:21 | 48.73779 | 134.67955 | 11419 ft | 335 kts | 159° |
| 2026-04-26 06:22 | 48.71624 | 134.69269 | 10504 ft | 332 kts | 158° |
| 2026-04-26 06:22 | 48.69513 | 134.70552 | 9602 ft | 330 kts | 158° |
| 2026-04-26 06:22 | 48.67402 | 134.71835 | 8696 ft | 327 kts | 158° |
| 2026-04-26 06:22 | 48.65303 | 134.73112 | 7788 ft | 324 kts | 157° |
| 2026-04-26 06:23 | 48.63258 | 134.74355 | 6899 ft | 321 kts | 157° |
| 2026-04-26 06:23 | 48.61203 | 134.75600 | 6001 ft | 318 kts | 156° |
| 2026-04-26 06:23 | 48.59172 | 134.76831 | 5265 ft | 310 kts | 156° |
| 2026-04-26 06:23 | 48.57262 | 134.77986 | 5061 ft | 286 kts | 156° |
| 2026-04-26 06:24 | 48.55467 | 134.79071 | 4925 ft | 264 kts | 156° |
| 2026-04-26 06:24 | 48.53849 | 134.80051 | 4792 ft | 245 kts | 155° |
| 2026-04-26 06:24 | 48.52318 | 134.80978 | 4659 ft | 231 kts | 155° |
| 2026-04-26 06:24 | 48.50833 | 134.81880 | 4554 ft | 230 kts | 155° |
| 2026-04-26 06:25 | 48.49337 | 134.82787 | 4428 ft | 230 kts | 155° |
| 2026-04-26 06:25 | 48.47861 | 134.83681 | 4308 ft | 229 kts | 155° |
| 2026-04-26 06:25 | 48.46386 | 134.84570 | 4178 ft | 225 kts | 155° |
| 2026-04-26 06:25 | 48.44963 | 134.85437 | 4047 ft | 218 kts | 151° |
| 2026-04-26 06:26 | 48.43691 | 134.86624 | 3936 ft | 211 kts | 137° |
| 2026-04-26 06:26 | 48.42684 | 134.88135 | 3752 ft | 201 kts | 127° |
| 2026-04-26 06:26 | 48.41803 | 134.89719 | 3543 ft | 194 kts | 126° |
| 2026-04-26 06:26 | 48.40969 | 134.91257 | 3337 ft | 188 kts | 125° |
| 2026-04-26 06:27 | 48.40159 | 134.92743 | 3120 ft | 180 kts | 126° |
| 2026-04-26 06:27 | 48.39364 | 134.94189 | 2937 ft | 174 kts | 125° |
| 2026-04-26 06:27 | 48.38628 | 134.95535 | 2851 ft | 162 kts | 121° |
| 2026-04-26 06:27 | 48.38217 | 134.97069 | 2836 ft | 157 kts | 94° |
| 2026-04-26 06:28 | 48.38375 | 134.98659 | 2833 ft | 155 kts | 63° |
| 2026-04-26 06:28 | 48.38956 | 134.99995 | 2865 ft | 155 kts | 50° |
| 2026-04-26 06:28 | 48.39691 | 135.01186 | 2889 ft | 155 kts | 44° |
| 2026-04-26 06:28 | 48.40488 | 135.02290 | 2847 ft | 155 kts | 43° |
| 2026-04-26 06:29 | 48.41285 | 135.03363 | 2667 ft | 154 kts | 42° |
| 2026-04-26 06:29 | 48.42078 | 135.04433 | 2486 ft | 154 kts | 43° |
| 2026-04-26 06:29 | 48.42871 | 135.05513 | 2306 ft | 153 kts | 43° |
| 2026-04-26 06:29 | 48.43667 | 135.06602 | 2120 ft | 153 kts | 42° |
| 2026-04-26 06:30 | 48.44452 | 135.07678 | 1935 ft | 153 kts | 43° |
| 2026-04-26 06:30 | 48.45237 | 135.08756 | 1752 ft | 152 kts | 43° |
| 2026-04-26 06:30 | 48.46017 | 135.09824 | 1568 ft | 152 kts | 42° |
| 2026-04-26 06:30 | 48.46792 | 135.10884 | 1384 ft | 152 kts | 43° |
| 2026-04-26 06:31 | 48.47583 | 135.11968 | 1196 ft | 151 kts | 43° |
| 2026-04-26 06:31 | 48.48353 | 135.13014 | 1020 ft | 151 kts | 42° |
| 2026-04-26 06:31 | 48.49128 | 135.14088 | 832 ft | 151 kts | 44° |
| 2026-04-26 06:31 | 48.49897 | 135.15153 | 657 ft | 150 kts | 43° |
| 2026-04-26 06:32 | 48.50683 | 135.16194 | 498 ft | 148 kts | 42° |
| 2026-04-26 06:32 | 48.51438 | 135.17239 | 311 ft | 145 kts | 41° |
| 2026-04-26 06:32 | 48.52139 | 135.18196 | 261 ft | 118 kts | 42° |
| 2026-04-26 06:32 | 48.52553 | 135.18764 | 261 ft | 41 kts | 41° |
| 2026-04-26 06:33 | 48.52709 | 135.18973 | 261 ft | 29 kts | 43° |
| 2026-04-26 06:33 | 48.52853 | 135.19173 | 261 ft | 24 kts | 42° |
| 2026-04-26 06:33 | 48.52943 | 135.19295 | 261 ft | 9 kts | 36° |
| 2026-04-26 06:33 | 48.52992 | 135.19305 | 261 ft | 6 kts | 315° |
| 2026-04-26 06:34 | 48.52995 | 135.19232 | 261 ft | 8 kts | 255° |
| 2026-04-26 06:34 | 48.52979 | 135.19124 | 261 ft | 12 kts | 257° |
| 2026-04-26 06:34 | 48.52958 | 135.18983 | 261 ft | 15 kts | 257° |
| 2026-04-26 06:34 | 48.52932 | 135.18816 | 261 ft | 17 kts | 252° |
| 2026-04-26 06:35 | 48.52864 | 135.18657 | 261 ft | 19 kts | 225° |
| 2026-04-26 06:35 | 48.52760 | 135.18512 | 261 ft | 21 kts | 222° |
| 2026-04-26 06:35 | 48.52646 | 135.18358 | 261 ft | 23 kts | 221° |
| 2026-04-26 06:35 | 48.52521 | 135.18188 | 261 ft | 25 kts | 221° |
| 2026-04-26 06:36 | 48.52387 | 135.18007 | 261 ft | 27 kts | 222° |
| 2026-04-26 06:36 | 48.52307 | 135.17900 | 261 ft | 11 kts | 223° |
| 2026-04-26 06:36 | 48.52290 | 135.17802 | 261 ft | 10 kts | 294° |
| 2026-04-26 06:36 | 48.52336 | 135.17706 | 261 ft | 12 kts | 312° |
| 2026-04-26 06:37 | 48.52403 | 135.17596 | 261 ft | 15 kts | 313° |
| 2026-04-26 06:37 | 48.52471 | 135.17479 | 261 ft | 13 kts | 309° |
| 2026-04-26 06:37 | 48.52498 | 135.17375 | 261 ft | 8 kts | 288° |
| 2026-04-26 06:37 | 48.52530 | 135.17299 | 261 ft | 8 kts | 312° |
| 2026-04-26 06:38 | 48.52543 | 135.17279 | 261 ft | 0 kts | 312° |